METAR AND TAF INFORMATION
METAR FOR LFBG
ADDS - METARS form results

(0346 UTC 07 October 2022)
Data provider http://aviationweather.gov/metar/data/
 
METAR text: LFBG 070330Z AUTO 03002KT CAVOK 12/11 Q1024
Conditions at: LFBG (COGNAC/CHATEAUBE, FR) observed 0330 UTC 07 October 2022
Temperature: 12.0°C (54°F)
Dewpoint: 11.0°C (52°F) [RH = 94%]
Pressure (altimeter): 30.24 inches Hg (1024.0 mb)
Winds: from the NNE (30 degrees) at 2 MPH (2 knots; 1.0 m/s)
Visibility: 6 or more miles (10+ km)
Ceiling: ceiling and visibility are OK
Clouds: unknown
Weather: no significant weather observed at this time

METAR text: LFBG 070300Z AUTO VRB01KT CAVOK 12/11 Q1024
Conditions at: LFBG (COGNAC/CHATEAUBE, FR) observed 0300 UTC 07 October 2022
Temperature: 12.0°C (54°F)
Dewpoint: 11.0°C (52°F) [RH = 94%]
Pressure (altimeter): 30.24 inches Hg (1024.0 mb)
Winds: variable direction winds at 1 MPH (1 knots; 0.5 m/s)
Visibility: 6 or more miles (10+ km)
Ceiling: ceiling and visibility are OK
Clouds: unknown
Weather: no significant weather observed at this time

Forecast for: LFBG (COGNAC/CHATEAUBE, FR)
Text: TAF LFBG 062000Z 0621/0721 03004KT CAVOK
Forecast period: 2100 UTC 06 October 2022 to 2100 UTC 07 October 2022
Forecast type: FROM: standard forecast or significant change
Winds: from the NNE (30 degrees) at 5 MPH (4 knots; 2.1 m/s)
Visibility: 6 or more miles (10+ km)
Ceiling: unknown
Clouds: missing
Weather: NSW  (no significant weather)
Text: TEMPO 0702/0707 0800 BCFG
Forecast period: 0200 to 0700 UTC 07 October 2022
Forecast type: TEMPORARY: The following changes expected for less than half the time period
Visibility: 0.50 miles (0.80 km)
Ceiling: unknown
Clouds: missing
Weather: BCFG  (patches of fog)

 AIRPORT MAP

 RUNWAY INFORMATION
Runway 05 Runway length 7949 ft Runway width 148 ft
Runway elevation 77 ft Runway displaced threshold 454 ft Runway heading 50
Runway 23 Runway length 7949 ft Runway width 148 ft
Runway elevation 101 ft Runway displaced threshold 459 ft Runway heading 230
Runway 09 Runway length 6152 ft Runway width 197 ft
Runway elevation 87 ft Runway displaced threshold 282 ft Runway heading 84
Runway 27 Runway length 6152 ft Runway width 197 ft
Runway elevation 96 ft Runway displaced threshold 367 ft Runway heading 264

 AIRPORT FREQUENCIES
Type APP Name COGNAC APP Frequency 29.372 MHZ
Type APP Name COGNAC APP Frequency 122.55 MHZ
Type OPS Name COGNAC OPS Frequency 139.925 MHZ
Type TWR Name COGNAC TWR Frequency 120.075 MHZ

 AIRPORT NEAR NAVIGATION AIDS
Type TACAN Name Cognac Frequency 116200 KHZ
Type NDB Name Cognac Frequency 354 KHZ
Type VOR-DME Name Cognac Frequency 114650 KHZ



Powered by Virtual Airlines Manager [v2.6.2]